Terminal Aerodrome Forecast
Issued by NWS

Home | Current Version | Previous Version | Text Only | Print | Product List | Glossary Off
Versions: 1 2 3 4 5 6 7 8 9 10 11 12 13 14 15 16 17 18 19 20 21 22 23 24 25 26 27 28 29 30 31 32 33 34 35 36 37 38 39 40 41 42 43 44

000
FTUS43 KLOT 130900 AAB
TAFORD
TAF AMD
KORD 130920Z 1309/1412 30007KT P6SM BKN009 OVC015
     FM131100 30008KT P6SM SCT009 OVC015
     FM131430 29006KT P6SM SCT020 BKN250
     FM131800 28010G17KT P6SM SCT045 BKN250
     FM140000 30010KT P6SM BKN050=

USA.gov is the U.S. government's official web portal to all federal, state and local government web resources and services.